Nearby METAR Reports

 

KIWA - Chandler/Mesa, Arizona, USA
Distance from station: SSW 10mi, 16km
Updated: Mon, 18-Oct-2021 3:50pm MST
Partly Cloudy
Partly Cloudy
 Wind from S
Wind: S 18 mph , 30 km/h, Gust: 24 mph , 39 km/h
Temperature: 82°F , 28°C
Dew Point: 46°F , 8°C
Humidity: 28%
Barometer: 29.80 inHg , 1009.1 hPa
Clouds: Partly Cloudy
Visibility: 10 miles , 16 km
Cloud details: Partly Cloudy 6000 ft
2021/10/18 22:50 KIWA 182250Z 18016G21KT 10SM SCT060 28/08 A2980
KFFZ - Mesa/Falcon Fld, Arizona, USA
Distance from station: WNW 8mi, 13km
Updated: Mon, 18-Oct-2021 3:54pm MST
Partly Cloudy
Partly Cloudy
 Wind from S
Wind: S 12 mph , 19 km/h, Gust: 22 mph , 35 km/h
Temperature: 82°F , 28°C
Dew Point: 48°F , 9°C
Humidity: 30%
Barometer: 29.78 inHg , 1008.5 hPa
Clouds: Partly Cloudy
Visibility: 10 miles , 16 km
Cloud details: Partly Cloudy 6500 ft
2021/10/18 22:54 KFFZ 182254Z 19010G19KT 10SM SCT065 28/09 A2978 RMK AO2 SLP062 T02780089 $
KPHX - Phoenix/Sky Hrbr, Arizona, USA
Distance from station: W 25mi, 41km
Updated: Mon, 18-Oct-2021 3:51pm MST
Partly Cloudy
Partly Cloudy
 Wind from WSW
Wind: WSW 9 mph , 15 km/h, Gust: 21 mph , 33 km/h
Temperature: 84°F , 29°C
Dew Point: 45°F , 7°C
Humidity: 25%
Barometer: 29.75 inHg , 1007.5 hPa
Clouds: Partly Cloudy
Visibility: 10 miles , 16 km
Cloud details: Partly Cloudy 7000 ft
2021/10/18 22:51 KPHX 182251Z 24008G18KT 10SM SCT070 29/07 A2975 RMK AO2 SLP060 T02940072

Metar display script from Saratoga-Weather.org